La Carlota, Argentina
Current Conditions -  °F | °C
As of 11:00 AM on Friday 19 Dec 2014 (Local Time) from SAOC Reporting Station
Clear Clear  
Wind Chill: 90°   Ceiling: Unl
Heat Index: 90°   Visibility: 6mi
Dew Point: 57°   Wind: 22mph
Humidity: 33%   Direction: 360°N
Pressure: 29.65"   Gusts: NA
Location:  33.43°S, 63.3°W
Report Text: SAOC 191400Z 36019KT CAVOK 32/14 Q1004
Loading
Personal Weather Stations






























Interactive Weather Map New forecast layout! Learn more

10-Day Weather Forecast

Advertisements
Track Severe Weather on mobile